createdAt,value
2018-12-13T00:00:12.761Z,100.00
2018-12-13T00:02:41.204Z,100.00
2018-12-13T00:05:10.141Z,100.00
2018-12-13T00:07:38.576Z,100.00
2018-12-13T00:10:07.286Z,100.00
2018-12-13T00:12:36.010Z,100.00
2018-12-13T00:15:05.326Z,100.00
2018-12-13T00:17:33.780Z,100.00
2018-12-13T00:20:02.602Z,100.00
2018-12-13T00:22:31.497Z,100.00
2018-12-13T00:24:59.932Z,100.00
2018-12-13T00:27:28.362Z,100.00
2018-12-13T00:29:56.831Z,100.00
2018-12-13T00:32:25.254Z,100.00
2018-12-13T00:34:53.736Z,100.00
2018-12-13T00:37:22.174Z,100.00
2018-12-13T00:39:50.639Z,100.00
2018-12-13T00:42:19.075Z,100.00
2018-12-13T00:44:47.578Z,100.00
2018-12-13T00:47:16.021Z,100.00
2018-12-13T00:49:44.774Z,100.00
2018-12-13T00:52:13.938Z,100.00
2018-12-13T00:54:42.729Z,100.00
2018-12-13T00:57:11.164Z,100.00
2018-12-13T00:59:39.591Z,100.00
2018-12-13T01:02:08.028Z,100.00
2018-12-13T01:04:37.381Z,100.00
2018-12-13T01:07:05.820Z,100.00
2018-12-13T01:09:34.587Z,100.00
2018-12-13T01:12:03.063Z,100.00
2018-12-13T01:14:31.979Z,100.00
2018-12-13T01:17:00.687Z,100.00
2018-12-13T01:19:29.113Z,100.00
2018-12-13T01:21:57.539Z,100.00
2018-12-13T01:24:27.025Z,100.00
2018-12-13T01:26:55.466Z,100.00
2018-12-13T01:29:23.919Z,100.00
2018-12-13T01:31:52.690Z,100.00
2018-12-13T01:34:21.160Z,100.00
2018-12-13T01:36:52.552Z,100.00
2018-12-13T01:39:20.984Z,100.00
2018-12-13T01:41:49.437Z,100.00
2018-12-13T01:44:17.849Z,100.00
2018-12-13T01:46:46.330Z,100.00
2018-12-13T01:49:15.630Z,100.00
2018-12-13T01:51:44.516Z,100.00
2018-12-13T01:54:13.129Z,100.00
2018-12-13T01:56:41.580Z,100.00
2018-12-13T01:59:10.315Z,100.00
2018-12-13T02:01:38.801Z,100.00
2018-12-13T02:04:07.897Z,100.00
2018-12-13T02:06:36.570Z,100.00
2018-12-13T02:09:06.611Z,100.00
2018-12-13T02:11:35.670Z,100.00
2018-12-13T02:14:04.219Z,100.00
2018-12-13T02:16:32.679Z,100.00
2018-12-13T02:19:01.113Z,100.00
2018-12-13T02:21:31.436Z,100.00
2018-12-13T02:24:01.100Z,100.00
2018-12-13T02:26:29.805Z,100.00
2018-12-13T02:28:58.262Z,100.00
2018-12-13T02:31:26.747Z,100.00
2018-12-13T02:33:56.414Z,100.00
2018-12-13T02:36:25.486Z,100.00
2018-12-13T02:38:54.187Z,100.00
2018-12-13T02:41:22.662Z,100.00
2018-12-13T02:43:51.322Z,100.00
2018-12-13T02:46:20.017Z,100.00
2018-12-13T02:48:48.930Z,100.00
2018-12-13T02:51:18.393Z,100.00
2018-12-13T02:53:47.412Z,100.00
2018-12-13T02:56:16.706Z,100.00
2018-12-13T02:58:45.183Z,100.00
2018-12-13T03:01:13.632Z,100.00
2018-12-13T03:03:42.126Z,100.00
2018-12-13T03:06:10.663Z,100.00
2018-12-13T03:08:39.554Z,100.00
2018-12-13T03:11:08.418Z,100.00
2018-12-13T03:13:36.850Z,100.00
2018-12-13T03:16:05.921Z,100.00
2018-12-13T03:18:34.402Z,100.00
2018-12-13T03:21:03.741Z,100.00
2018-12-13T03:23:32.527Z,100.00
2018-12-13T03:26:01.084Z,100.00
2018-12-13T03:28:29.879Z,100.00
2018-12-13T03:30:58.334Z,100.00
2018-12-13T03:33:26.809Z,100.00
2018-12-13T03:35:55.246Z,100.00
2018-12-13T03:38:23.706Z,100.00
2018-12-13T03:40:52.129Z,100.00
2018-12-13T03:43:22.332Z,100.00
2018-12-13T03:45:51.081Z,100.00
2018-12-13T03:48:20.538Z,100.00
2018-12-13T03:50:49.109Z,100.00
2018-12-13T03:53:17.597Z,100.00
2018-12-13T03:55:46.072Z,100.00
2018-12-13T03:58:14.539Z,100.00
2018-12-13T04:00:42.996Z,100.00
2018-12-13T04:03:11.492Z,100.00
2018-12-13T04:05:39.954Z,100.00
2018-12-13T04:08:09.549Z,100.00
2018-12-13T04:10:38.007Z,100.00
2018-12-13T04:13:06.880Z,100.00
2018-12-13T04:15:36.107Z,100.00
2018-12-13T04:18:04.594Z,100.00
2018-12-13T04:20:33.911Z,100.00
2018-12-13T04:23:02.345Z,100.00
2018-12-13T04:25:30.869Z,100.00
2018-12-13T04:28:00.873Z,100.00
2018-12-13T04:30:29.341Z,100.00
2018-12-13T04:32:57.768Z,100.00
2018-12-13T04:35:26.221Z,100.00
2018-12-13T04:37:54.684Z,100.00
2018-12-13T04:40:23.146Z,100.00
2018-12-13T04:42:51.567Z,100.00
2018-12-13T04:45:21.641Z,100.00
2018-12-13T04:47:50.107Z,100.00
2018-12-13T04:50:18.554Z,100.00
2018-12-13T04:52:47.008Z,100.00
2018-12-13T04:55:15.468Z,100.00
2018-12-13T04:57:45.183Z,100.00
2018-12-13T05:00:13.637Z,100.00
2018-12-13T05:02:42.528Z,100.00
2018-12-13T05:05:11.181Z,100.00
2018-12-13T05:07:41.908Z,100.00
2018-12-13T05:10:15.510Z,100.00
2018-12-13T05:12:43.957Z,100.00
2018-12-13T05:15:12.752Z,100.00
2018-12-13T05:17:41.604Z,100.00
2018-12-13T05:20:10.063Z,100.00
2018-12-13T05:22:38.514Z,100.00
2018-12-13T05:25:07.082Z,100.00
2018-12-13T05:27:35.521Z,100.00
2018-12-13T05:30:04.779Z,100.00
2018-12-13T05:32:33.256Z,100.00
2018-12-13T05:35:01.706Z,100.00
2018-12-13T05:37:30.488Z,100.00
2018-12-13T05:39:58.912Z,100.00
2018-12-13T05:42:27.348Z,100.00
2018-12-13T05:44:55.790Z,100.00
2018-12-13T05:47:24.236Z,100.00
2018-12-13T05:49:53.592Z,100.00
2018-12-13T05:52:22.023Z,100.00
2018-12-13T05:54:50.463Z,100.00
2018-12-13T05:57:18.939Z,100.00
2018-12-13T05:59:47.382Z,100.00
2018-12-13T06:02:16.206Z,100.00
2018-12-13T06:04:45.062Z,100.00
2018-12-13T06:07:13.543Z,100.00
2018-12-13T06:09:41.974Z,100.00
2018-12-13T06:12:11.355Z,100.00
2018-12-13T06:14:39.785Z,100.00
2018-12-13T06:17:08.940Z,100.00
2018-12-13T06:19:38.278Z,100.00
2018-12-13T06:22:08.269Z,100.00
2018-12-13T06:24:36.716Z,100.00
2018-12-13T06:27:05.178Z,100.00
2018-12-13T06:29:41.584Z,100.00
2018-12-13T06:32:05.695Z,100.00
2018-12-13T06:34:35.176Z,100.00
2018-12-13T06:37:03.662Z,100.00
2018-12-13T06:39:32.238Z,100.00
2018-12-13T06:42:01.095Z,100.00
2018-12-13T06:44:29.960Z,100.00
2018-12-13T06:46:59.408Z,100.00
2018-12-13T06:49:28.617Z,100.00
2018-12-13T06:51:57.061Z,100.00
2018-12-13T06:54:25.538Z,100.00
2018-12-13T06:56:54.754Z,100.00
2018-12-13T06:59:23.560Z,100.00
2018-12-13T07:01:52.031Z,100.00
2018-12-13T07:04:20.959Z,100.00
2018-12-13T07:06:49.791Z,100.00
2018-12-13T07:09:21.634Z,100.00
2018-12-13T07:11:50.865Z,100.00
2018-12-13T07:14:19.426Z,100.00
2018-12-13T07:16:48.923Z,100.00
2018-12-13T07:19:17.619Z,100.00
2018-12-13T07:21:48.990Z,100.00
2018-12-13T07:24:26.327Z,100.00
2018-12-13T07:26:56.699Z,100.00
2018-12-13T07:29:26.314Z,100.00
2018-12-13T07:31:54.882Z,100.00
2018-12-13T07:34:35.927Z,100.00
2018-12-13T07:37:12.323Z,100.00
2018-12-13T07:39:43.217Z,100.00
2018-12-13T07:42:24.148Z,100.00
2018-12-13T07:44:52.698Z,100.00
2018-12-13T07:47:38.117Z,100.00
2018-12-13T07:50:13.698Z,100.00
2018-12-13T07:52:47.112Z,100.00
2018-12-13T07:55:23.746Z,100.00
2018-12-13T07:57:57.737Z,100.00
2018-12-13T08:00:30.696Z,100.00
2018-12-13T08:03:02.711Z,100.00
2018-12-13T08:05:35.645Z,100.00
2018-12-13T08:08:04.247Z,100.00
2018-12-13T08:10:41.750Z,100.00
2018-12-13T08:13:15.933Z,100.00
2018-12-13T08:15:56.871Z,100.00
2018-12-13T08:18:31.288Z,100.00
2018-12-13T08:21:11.321Z,100.00
2018-12-13T08:23:46.893Z,100.00
2018-12-13T08:26:16.663Z,100.00
2018-12-13T08:28:47.609Z,100.00
2018-12-13T08:31:25.581Z,100.00
2018-12-13T08:33:54.982Z,100.00
2018-12-13T08:36:31.506Z,100.00
2018-12-13T08:39:01.014Z,100.00
2018-12-13T08:41:34.585Z,100.00
2018-12-13T08:44:11.946Z,100.00
2018-12-13T08:46:43.631Z,100.00
2018-12-13T08:49:18.451Z,100.00
2018-12-13T08:51:58.246Z,100.00
2018-12-13T08:54:35.399Z,100.00
2018-12-13T08:57:08.147Z,100.00
2018-12-13T08:59:38.038Z,100.00
2018-12-13T09:02:10.979Z,100.00
2018-12-13T09:04:40.187Z,100.00
2018-12-13T09:07:08.706Z,100.00
2018-12-13T09:09:37.130Z,100.00
2018-12-13T09:12:05.603Z,100.00
2018-12-13T09:14:34.059Z,100.00
2018-12-13T09:17:02.993Z,100.00
2018-12-13T09:19:31.874Z,100.00
2018-12-13T09:22:00.314Z,100.00
2018-12-13T09:24:28.760Z,100.00
2018-12-13T09:26:57.200Z,100.00
2018-12-13T09:29:25.870Z,100.00
2018-12-13T09:31:55.786Z,100.00
2018-12-13T09:34:24.217Z,100.00
2018-12-13T09:36:52.668Z,100.00
2018-12-13T09:39:21.107Z,100.00
2018-12-13T09:41:50.246Z,100.00
2018-12-13T09:44:18.935Z,100.00
2018-12-13T09:46:48.321Z,100.00
2018-12-13T09:49:17.973Z,100.00
2018-12-13T09:51:47.764Z,100.00
2018-12-13T09:54:23.249Z,100.00
2018-12-13T09:57:00.708Z,100.00
2018-12-13T09:59:36.203Z,100.00
2018-12-13T10:02:15.263Z,100.00
2018-12-13T10:04:47.885Z,100.00
2018-12-13T10:07:16.567Z,100.00
2018-12-13T10:09:49.222Z,100.00
2018-12-13T10:12:22.988Z,100.00
2018-12-13T10:15:03.201Z,100.00
2018-12-13T10:17:40.817Z,100.00
2018-12-13T10:20:09.780Z,100.00
2018-12-13T10:22:46.793Z,100.00
2018-12-13T10:28:10.954Z,100.00
2018-12-13T10:30:41.563Z,100.00
2018-12-13T10:33:10.800Z,100.00
2018-12-13T10:35:42.447Z,100.00
2018-12-13T10:38:11.723Z,100.00
2018-12-13T10:43:31.215Z,100.00
2018-12-13T10:46:06.638Z,100.00
2018-12-13T10:48:35.321Z,100.00
2018-12-13T10:53:48.638Z,100.00
2018-12-13T10:56:19.205Z,100.00
2018-12-13T10:58:47.694Z,100.00
2018-12-13T11:01:21.311Z,100.00
2018-12-13T11:03:50.664Z,100.00
2018-12-13T11:06:19.536Z,100.00
2018-12-13T11:08:48.115Z,100.00
2018-12-13T11:11:17.477Z,100.00
2018-12-13T11:13:45.943Z,100.00
2018-12-13T11:16:14.361Z,100.00
2018-12-13T11:18:43.176Z,100.00
2018-12-13T11:21:17.281Z,100.00
2018-12-13T11:23:42.470Z,100.00
2018-12-13T11:26:10.907Z,100.00
2018-12-13T11:28:51.907Z,100.00
2018-12-13T11:31:20.350Z,100.00
2018-12-13T11:33:49.305Z,100.00
2018-12-13T11:36:17.741Z,100.00
2018-12-13T11:38:47.287Z,100.00
2018-12-13T11:41:15.902Z,100.00
2018-12-13T11:43:44.473Z,100.00
2018-12-13T11:46:13.965Z,100.00
2018-12-13T11:48:42.779Z,100.00
2018-12-13T11:51:14.322Z,100.00
2018-12-13T11:53:45.905Z,100.00
2018-12-13T11:56:17.649Z,100.00
2018-12-13T11:58:47.777Z,100.00
2018-12-13T12:01:19.117Z,100.00
2018-12-13T12:03:49.182Z,100.00
2018-12-13T12:06:18.100Z,100.00
2018-12-13T12:08:51.383Z,100.00
2018-12-13T12:11:19.902Z,100.00
2018-12-13T12:13:48.991Z,100.00
2018-12-13T12:16:26.568Z,100.00
2018-12-13T12:19:07.513Z,100.00
2018-12-13T12:21:42.341Z,100.00
2018-12-13T12:24:12.701Z,100.00
2018-12-13T12:26:41.414Z,100.00
2018-12-13T12:29:10.089Z,100.00
2018-12-13T12:31:38.889Z,100.00
2018-12-13T12:34:07.308Z,100.00
2018-12-13T12:36:35.854Z,100.00
2018-12-13T12:39:07.591Z,100.00
2018-12-13T12:41:36.406Z,100.00
2018-12-13T12:44:04.960Z,99.16
2018-12-13T12:46:33.421Z,97.52
2018-12-13T12:49:01.852Z,96.07
2018-12-13T12:51:30.561Z,94.62
2018-12-13T12:53:59.360Z,93.63
2018-12-13T12:56:28.047Z,94.97
2018-12-13T12:58:57.404Z,91.32
2018-12-13T13:01:26.199Z,91.29
2018-12-13T13:03:54.782Z,92.42
2018-12-13T13:06:23.232Z,92.93
2018-12-13T13:08:53.366Z,94.10
2018-12-13T13:11:21.859Z,92.64
2018-12-13T13:13:50.301Z,88.20
2018-12-13T13:16:18.769Z,87.79
2018-12-13T13:18:47.214Z,86.26
2018-12-13T13:21:16.410Z,85.15
2018-12-13T13:23:44.846Z,85.64
2018-12-13T13:26:13.617Z,83.15
2018-12-13T13:28:43.157Z,82.04
2018-12-13T13:31:11.805Z,80.56
2018-12-13T13:33:40.642Z,75.88
2018-12-13T13:36:10.363Z,79.76
2018-12-13T13:38:39.059Z,82.30
2018-12-13T13:41:08.221Z,83.35
2018-12-13T13:43:36.667Z,83.61
2018-12-13T13:46:05.355Z,82.63
2018-12-13T13:48:33.799Z,82.02
2018-12-13T13:51:02.958Z,84.13
2018-12-13T13:53:39.117Z,85.87
2018-12-13T13:56:08.156Z,84.09
2018-12-13T13:58:37.470Z,84.57
2018-12-13T14:01:06.123Z,82.33
2018-12-13T14:03:36.629Z,79.80
2018-12-13T14:06:06.537Z,82.23
2018-12-13T14:08:42.700Z,80.06
2018-12-13T14:11:15.080Z,80.49
2018-12-13T14:13:50.808Z,80.18
2018-12-13T14:16:26.514Z,80.20
2018-12-13T14:18:57.566Z,85.38
2018-12-13T14:21:29.760Z,86.14
2018-12-13T14:24:02.540Z,85.20
2018-12-13T14:26:34.198Z,84.35
2018-12-13T14:29:04.457Z,84.59
2018-12-13T14:31:43.486Z,88.99
2018-12-13T14:34:20.711Z,88.54
2018-12-13T14:36:53.299Z,91.57
2018-12-13T14:39:30.302Z,92.61
2018-12-13T14:42:05.920Z,98.26
2018-12-13T14:44:36.330Z,100.00
2018-12-13T14:47:07.788Z,100.00
2018-12-13T14:49:36.332Z,100.00
2018-12-13T14:52:07.341Z,100.00
2018-12-13T14:54:41.484Z,100.00
2018-12-13T14:57:10.669Z,100.00
2018-12-13T14:59:47.039Z,100.00
2018-12-13T15:02:20.567Z,100.00
2018-12-13T15:05:00.571Z,100.00
2018-12-13T15:07:33.647Z,100.00
2018-12-13T15:10:07.422Z,100.00
2018-12-13T15:12:38.441Z,100.00
2018-12-13T15:15:07.881Z,100.00
2018-12-13T15:17:40.480Z,100.00
2018-12-13T15:20:17.370Z,100.00
2018-12-13T15:22:47.857Z,100.00
2018-12-13T15:25:19.437Z,100.00
2018-12-13T15:27:49.608Z,100.00
2018-12-13T15:30:20.498Z,100.00
2018-12-13T15:32:52.024Z,100.00
2018-12-13T15:35:25.197Z,100.00
2018-12-13T15:37:58.611Z,100.00
2018-12-13T15:40:28.777Z,100.00
2018-12-13T15:42:57.257Z,100.00
2018-12-13T15:45:27.461Z,100.00
2018-12-13T15:47:56.850Z,100.00
2018-12-13T15:50:25.778Z,100.00
2018-12-13T15:52:57.948Z,100.00
2018-12-13T15:55:28.718Z,100.00
2018-12-13T15:57:57.277Z,100.00
2018-12-13T16:00:26.618Z,100.00
2018-12-13T16:02:55.078Z,100.00
2018-12-13T16:05:24.562Z,100.00
2018-12-13T16:07:55.428Z,100.00
2018-12-13T16:10:24.848Z,100.00
2018-12-13T16:12:54.824Z,100.00
2018-12-13T16:15:26.195Z,100.00
2018-12-13T16:17:58.789Z,100.00
2018-12-13T16:20:35.415Z,100.00
2018-12-13T16:23:04.479Z,100.00
2018-12-13T16:25:38.138Z,100.00
2018-12-13T16:28:09.251Z,100.00
2018-12-13T16:30:42.357Z,100.00
2018-12-13T16:33:12.604Z,100.00
2018-12-13T16:35:47.300Z,100.00
2018-12-13T16:38:16.085Z,100.00
2018-12-13T16:40:45.662Z,100.00
2018-12-13T16:43:14.603Z,100.00
2018-12-13T16:45:44.500Z,100.00
2018-12-13T16:48:19.429Z,100.00
2018-12-13T16:50:48.919Z,100.00
2018-12-13T16:53:18.721Z,100.00
2018-12-13T16:55:49.908Z,100.00
2018-12-13T16:58:20.867Z,100.00
2018-12-13T17:00:50.843Z,100.00
2018-12-13T17:03:31.921Z,100.00
2018-12-13T17:06:03.686Z,100.00
2018-12-13T17:08:32.879Z,100.00
2018-12-13T17:11:04.160Z,100.00
2018-12-13T17:13:33.085Z,100.00
2018-12-13T17:18:46.558Z,100.00
2018-12-13T17:21:15.214Z,100.00
2018-12-13T17:23:45.284Z,100.00
2018-12-13T17:26:17.166Z,100.00
2018-12-13T17:28:46.321Z,100.00
2018-12-13T17:31:15.834Z,100.00
2018-12-13T17:33:44.667Z,100.00
2018-12-13T17:36:18.160Z,100.00
2018-12-13T17:38:47.818Z,100.00
2018-12-13T17:41:19.360Z,100.00
2018-12-13T17:43:49.961Z,100.00
2018-12-13T17:46:21.918Z,100.00
2018-12-13T17:48:55.829Z,100.00
2018-12-13T17:51:27.492Z,100.00
2018-12-13T17:53:56.801Z,100.00
2018-12-13T17:56:28.653Z,100.00
2018-12-13T17:58:59.182Z,100.00
2018-12-13T18:01:28.242Z,100.00
2018-12-13T18:03:57.223Z,100.00
2018-12-13T18:06:25.698Z,100.00
2018-12-13T18:08:55.321Z,100.00
2018-12-13T18:11:23.789Z,100.00
2018-12-13T18:13:55.291Z,100.00
2018-12-13T18:16:30.319Z,100.00
2018-12-13T18:19:00.977Z,100.00
2018-12-13T18:21:31.405Z,100.00
2018-12-13T18:24:00.614Z,100.00
2018-12-13T18:26:35.540Z,100.00
2018-12-13T18:29:05.561Z,100.00
2018-12-13T18:31:34.082Z,100.00
2018-12-13T18:34:02.919Z,100.00
2018-12-13T18:36:37.069Z,100.00
2018-12-13T18:39:12.546Z,100.00
2018-12-13T18:41:41.887Z,100.00
2018-12-13T18:44:11.294Z,100.00
2018-12-13T18:46:41.825Z,100.00
2018-12-13T18:49:10.606Z,100.00
2018-12-13T18:51:41.815Z,100.00
2018-12-13T18:54:11.772Z,100.00
2018-12-13T18:56:40.478Z,100.00
2018-12-13T18:59:09.423Z,100.00
2018-12-13T19:01:39.337Z,100.00
2018-12-13T19:04:09.218Z,100.00
2018-12-13T19:06:42.747Z,100.00
2018-12-13T19:09:14.867Z,100.00
2018-12-13T19:11:46.802Z,100.00
2018-12-13T19:14:17.500Z,100.00
2018-12-13T19:16:48.688Z,100.00
2018-12-13T19:19:25.986Z,100.00
2018-12-13T19:21:55.462Z,100.00
2018-12-13T19:24:24.751Z,100.00
2018-12-13T19:26:54.111Z,100.00
2018-12-13T19:29:25.051Z,100.00
2018-12-13T19:31:56.327Z,100.00
2018-12-13T19:34:26.629Z,100.00
2018-12-13T19:36:59.619Z,100.00
2018-12-13T19:39:47.908Z,100.00
2018-12-13T19:42:17.614Z,100.00
2018-12-13T19:44:51.616Z,100.00
2018-12-13T19:47:23.106Z,100.00
2018-12-13T19:49:54.639Z,100.00
2018-12-13T19:55:13.763Z,100.00
2018-12-13T19:57:43.071Z,100.00
2018-12-13T20:00:11.745Z,100.00
2018-12-13T20:02:40.790Z,100.00
2018-12-13T20:05:16.609Z,100.00
2018-12-13T20:07:49.382Z,100.00
2018-12-13T20:10:18.005Z,100.00
2018-12-13T20:12:50.385Z,100.00
2018-12-13T20:15:24.249Z,100.00
2018-12-13T20:17:53.644Z,100.00
2018-12-13T20:20:22.344Z,100.00
2018-12-13T20:22:50.766Z,100.00
2018-12-13T20:25:19.946Z,100.00
2018-12-13T20:27:52.104Z,100.00
2018-12-13T20:30:28.695Z,100.00
2018-12-13T20:32:58.298Z,100.00
2018-12-13T20:35:27.012Z,100.00
2018-12-13T20:38:00.308Z,100.00
2018-12-13T20:40:28.776Z,100.00
2018-12-13T20:42:58.165Z,100.00
2018-12-13T20:45:27.578Z,100.00
2018-12-13T20:47:57.071Z,100.00
2018-12-13T20:50:26.133Z,100.00
2018-12-13T20:52:56.166Z,100.00
2018-12-13T20:55:25.260Z,100.00
2018-12-13T20:57:53.697Z,100.00
2018-12-13T21:00:24.049Z,100.00
2018-12-13T21:02:53.028Z,100.00
2018-12-13T21:05:22.593Z,100.00
2018-12-13T21:07:53.464Z,100.00
2018-12-13T21:10:22.202Z,100.00
2018-12-13T21:12:51.497Z,100.00
2018-12-13T21:15:20.403Z,100.00
2018-12-13T21:17:49.274Z,100.00
2018-12-13T21:20:18.372Z,100.00
2018-12-13T21:22:46.819Z,100.00
2018-12-13T21:25:15.357Z,100.00
2018-12-13T21:27:44.213Z,100.00
2018-12-13T21:30:13.729Z,100.00
2018-12-13T21:32:42.444Z,100.00
2018-12-13T21:35:11.157Z,100.00
2018-12-13T21:37:39.590Z,100.00
2018-12-13T21:40:08.192Z,100.00
2018-12-13T21:42:37.000Z,100.00
2018-12-13T21:45:06.071Z,100.00
2018-12-13T21:47:34.527Z,100.00
2018-12-13T21:50:03.119Z,100.00
2018-12-13T21:52:32.104Z,100.00
2018-12-13T21:55:00.764Z,100.00
2018-12-13T21:57:29.216Z,100.00
2018-12-13T21:59:57.662Z,100.00
2018-12-13T22:02:26.128Z,100.00
2018-12-13T22:04:55.506Z,100.00
2018-12-13T22:07:24.118Z,100.00
2018-12-13T22:09:52.552Z,100.00
2018-12-13T22:12:21.037Z,100.00
2018-12-13T22:14:49.513Z,100.00
2018-12-13T22:17:17.962Z,100.00
2018-12-13T22:19:46.647Z,100.00
2018-12-13T22:22:15.110Z,100.00
2018-12-13T22:24:43.584Z,100.00
2018-12-13T22:27:12.203Z,100.00
2018-12-13T22:29:40.645Z,100.00
2018-12-13T22:32:10.243Z,100.00
2018-12-13T22:34:38.884Z,100.00
2018-12-13T22:37:07.668Z,100.00
2018-12-13T22:39:36.124Z,100.00
2018-12-13T22:42:04.722Z,100.00
2018-12-13T22:44:33.925Z,100.00
2018-12-13T22:47:02.655Z,100.00
2018-12-13T22:49:31.105Z,100.00
2018-12-13T22:51:59.701Z,100.00
2018-12-13T22:54:28.719Z,100.00
2018-12-13T22:56:57.138Z,100.00
2018-12-13T22:59:25.599Z,100.00
2018-12-13T23:01:54.034Z,100.00
2018-12-13T23:04:22.511Z,100.00
2018-12-13T23:06:51.418Z,100.00
2018-12-13T23:09:20.187Z,100.00
2018-12-13T23:11:48.868Z,100.00
2018-12-13T23:14:17.428Z,100.00
2018-12-13T23:16:45.884Z,100.00
2018-12-13T23:19:14.557Z,100.00
2018-12-13T23:21:43.251Z,100.00
2018-12-13T23:24:12.877Z,100.00
2018-12-13T23:26:41.318Z,100.00
2018-12-13T23:29:09.783Z,100.00
2018-12-13T23:31:38.218Z,100.00
2018-12-13T23:34:06.680Z,100.00
2018-12-13T23:36:35.225Z,100.00
2018-12-13T23:39:06.375Z,100.00
2018-12-13T23:41:39.215Z,100.00
2018-12-13T23:44:05.658Z,100.00
2018-12-13T23:46:35.002Z,100.00
2018-12-13T23:49:03.815Z,100.00
2018-12-13T23:51:32.678Z,100.00
2018-12-13T23:54:01.127Z,100.00
2018-12-13T23:56:29.698Z,100.00
2018-12-13T23:58:58.907Z,100.00
